Airfield :







YOU CAN JOIN US ON...

 
LOGIN :

Register | Disclaimer

   EN    FR    IT 

 









Legend :    VFR   Marginal VFR   IFR   Intensive IFR   Very Intensive IFR
Visi :
Ceiling :
>= 8 km
>= 3000ft
5 to 8 km
1000 to 3000 ft
1500m to 5 km
500 to 1000 ft
800 to 1500m
200 to 500 ft
< 800m
< 200 ft
Symbols :   Thunderstorms  Fog  Heavy snow  Heavy precipitations  Wind > 20 kt






- Airport Elevation : 271 ft


KBAF - Barnes Municipal

CURRENT METAR :
  • 080653Z AUTO 00000KT 10SM CLR M14/M17 A3049 RMK AO2 SLP335 I1000 T11441167

EXPIRED METARs :
  • 080553Z AUTO 00000KT 10SM CLR M13/M16 A3048 RMK AO2 SLP332 I1000 I6000 T11281156 11039 21133 51005
  • 080453Z AUTO 00000KT 10SM CLR M12/M14 A3048 RMK AO2 SLP330 T11171139 400001122

TAF KBAF
Valid from the 08 at 06:00 until the 09 at 06:00 UTC


080540Z 0806/0906 00000KT P6SM SKC
FM081500 17003KT P6SM FEW250
FM082000 19007KT P6SM SCT250
FM090200 19007KT P6SM BKN100
FM090300 20007KT P6SM BKN080
FM090500 19006KT P6SM BKN050



MET'MAP, your aeronautical weather chart ! - Copyright ORBIFLY December 2007 - Disclaimer

ORBIFLY MET'MAP TEAM :

Programming & Development : Alexandra Zaïnal
Concept & original design : Baudouin d'Aumeries
Assistance for programming : Marc-Olivier Méhu
Technical & hardware support : Manuel Goepfert

Contact : metmap@orbifly.com




SOURCES & CREDITS :

   NOAA